createdAt,value
2022-08-12T00:01:13.430Z,22.30
2022-08-12T00:04:01.005Z,22.24
2022-08-12T00:06:49.232Z,22.23
2022-08-12T00:09:35.527Z,22.27
2022-08-12T00:12:22.399Z,22.25
2022-08-12T00:15:08.923Z,22.29
2022-08-12T00:17:55.644Z,22.14
2022-08-12T00:20:43.628Z,22.10
2022-08-12T00:23:32.076Z,22.11
2022-08-12T00:26:23.448Z,22.15
2022-08-12T00:29:12.832Z,22.08
2022-08-12T00:32:00.091Z,21.93
2022-08-12T00:34:48.456Z,21.85
2022-08-12T00:37:37.995Z,21.78
2022-08-12T00:40:26.246Z,21.77
2022-08-12T00:42:55.276Z,21.81
2022-08-12T00:45:24.628Z,21.84
2022-08-12T00:47:54.532Z,21.81
2022-08-12T00:50:24.348Z,21.85
2022-08-12T00:52:54.494Z,21.86
2022-08-12T00:55:23.320Z,21.85
2022-08-12T00:57:52.512Z,21.83
2022-08-12T01:00:24.381Z,21.85
2022-08-12T01:02:57.736Z,21.85
2022-08-12T01:05:44.699Z,21.78
2022-08-12T01:08:32.518Z,21.79
2022-08-12T01:11:19.174Z,21.80
2022-08-12T01:13:50.669Z,21.72
2022-08-12T01:16:23.050Z,21.67
2022-08-12T01:18:53.690Z,21.69
2022-08-12T01:21:44.560Z,21.73
2022-08-12T01:24:36.689Z,21.72
2022-08-12T01:27:11.629Z,21.71
2022-08-12T01:29:45.805Z,21.64
2022-08-12T01:32:16.705Z,21.61
2022-08-12T01:34:51.240Z,21.59
2022-08-12T01:37:23.794Z,21.60
2022-08-12T01:40:34.259Z,21.53
2022-08-12T01:42:48.492Z,21.42
2022-08-12T01:45:25.168Z,21.36
2022-08-12T01:48:12.927Z,21.28
2022-08-12T01:50:52.247Z,21.16
2022-08-12T01:53:26.991Z,21.10
2022-08-12T01:55:57.610Z,21.06
2022-08-12T01:58:51.203Z,21.00
2022-08-12T02:01:25.060Z,20.96
2022-08-12T02:04:23.171Z,20.92
2022-08-12T02:07:20.237Z,20.86
2022-08-12T02:10:49.029Z,20.77
2022-08-12T02:13:15.476Z,20.65
2022-08-12T02:16:11.526Z,20.57
2022-08-12T02:18:49.427Z,20.51
2022-08-12T02:21:27.466Z,20.46
2022-08-12T02:23:56.271Z,20.43
2022-08-12T02:26:30.601Z,20.43
2022-08-12T02:28:59.962Z,20.38
2022-08-12T02:31:31.930Z,20.32
2022-08-12T02:34:00.880Z,20.29
2022-08-12T02:36:33.322Z,20.21
2022-08-12T02:39:05.857Z,20.18
2022-08-12T02:41:37.965Z,20.14
2022-08-12T02:44:11.216Z,20.07
2022-08-12T02:46:43.027Z,20.03
2022-08-12T02:49:17.286Z,19.91
2022-08-12T02:51:46.535Z,19.88
2022-08-12T02:54:15.785Z,19.82
2022-08-12T02:56:50.607Z,19.79
2022-08-12T02:59:24.348Z,19.76
2022-08-12T03:01:56.741Z,19.74
2022-08-12T03:04:32.032Z,19.65
2022-08-12T03:07:11.116Z,19.64
2022-08-12T03:10:04.368Z,19.58
2022-08-12T03:12:48.926Z,19.60
2022-08-12T03:15:22.492Z,19.60
2022-08-12T03:18:24.815Z,19.58
2022-08-12T03:20:47.402Z,19.63
2022-08-12T03:23:29.068Z,19.61
2022-08-12T03:26:02.461Z,19.55
2022-08-12T03:28:52.779Z,19.47
2022-08-12T03:31:24.938Z,19.43
2022-08-12T03:34:02.198Z,19.44
2022-08-12T03:36:35.723Z,19.39
2022-08-12T03:39:36.475Z,19.38
2022-08-12T03:42:17.993Z,19.27
2022-08-12T03:45:14.631Z,19.22
2022-08-12T03:48:06.894Z,19.19
2022-08-12T03:50:54.379Z,19.18
2022-08-12T03:53:45.422Z,19.12
2022-08-12T03:56:31.633Z,19.10
2022-08-12T03:59:20.146Z,19.06
2022-08-12T04:01:57.510Z,19.03
2022-08-12T04:04:29.829Z,18.97
2022-08-12T04:07:00.190Z,18.97
2022-08-12T04:09:30.367Z,19.03
2022-08-12T04:12:16.410Z,19.04
2022-08-12T04:14:45.898Z,19.02
2022-08-12T04:17:16.241Z,19.06
2022-08-12T04:19:48.020Z,19.07
2022-08-12T04:22:18.831Z,19.04
2022-08-12T04:24:50.598Z,18.93
2022-08-12T04:27:20.111Z,18.82
2022-08-12T04:30:21.401Z,18.77
2022-08-12T04:32:43.740Z,18.78
2022-08-12T04:35:13.617Z,18.74
2022-08-12T04:37:59.227Z,18.71
2022-08-12T04:40:32.624Z,18.70
2022-08-12T04:43:02.475Z,18.65
2022-08-12T04:45:31.607Z,18.65
2022-08-12T04:48:01.955Z,18.63
2022-08-12T04:50:35.975Z,18.58
2022-08-12T04:53:09.090Z,18.48
2022-08-12T04:55:39.396Z,18.60
2022-08-12T04:58:08.869Z,18.64
2022-08-12T05:00:39.293Z,18.60
2022-08-12T05:03:08.484Z,18.62
2022-08-12T05:05:41.241Z,18.66
2022-08-12T05:08:16.165Z,18.69
2022-08-12T05:10:45.907Z,18.71
2022-08-12T05:13:18.284Z,18.73
2022-08-12T05:16:03.818Z,18.74
2022-08-12T05:18:35.427Z,18.75
2022-08-12T05:21:09.555Z,18.78
2022-08-12T05:23:40.835Z,18.79
2022-08-12T05:26:10.285Z,18.94
2022-08-12T05:28:39.086Z,18.87
2022-08-12T05:31:07.962Z,18.89
2022-08-12T05:33:40.149Z,18.94
2022-08-12T05:36:10.207Z,19.00
2022-08-12T05:38:59.185Z,19.02
2022-08-12T05:41:30.601Z,19.09
2022-08-12T05:44:02.140Z,19.13
2022-08-12T05:46:31.776Z,19.22
2022-08-12T05:49:01.282Z,19.24
2022-08-12T05:51:41.156Z,19.34
2022-08-12T05:54:12.963Z,19.39
2022-08-12T05:56:42.000Z,19.42
2022-08-12T05:59:12.612Z,19.46
2022-08-12T06:02:12.106Z,19.49
2022-08-12T06:04:33.762Z,19.49
2022-08-12T06:07:02.787Z,19.52
2022-08-12T06:09:52.990Z,19.56
2022-08-12T06:12:23.678Z,19.63
2022-08-12T06:14:56.113Z,19.70
2022-08-12T06:17:24.552Z,19.79
2022-08-12T06:20:22.848Z,19.87
2022-08-12T06:22:42.464Z,19.95
2022-08-12T06:25:22.035Z,20.01
2022-08-12T06:28:07.333Z,20.08
2022-08-12T06:30:39.141Z,20.16
2022-08-12T06:34:00.688Z,20.20
2022-08-12T06:35:59.201Z,20.22
2022-08-12T06:38:29.259Z,20.29
2022-08-12T06:41:19.839Z,20.42
2022-08-12T06:44:05.531Z,20.51
2022-08-12T06:46:39.385Z,20.61
2022-08-12T06:49:10.619Z,20.70
2022-08-12T06:51:39.185Z,20.78
2022-08-12T06:54:10.570Z,20.84
2022-08-12T06:57:03.194Z,20.91
2022-08-12T06:59:29.124Z,20.95
2022-08-12T07:01:57.563Z,21.00
2022-08-12T07:04:41.535Z,21.04
2022-08-12T07:07:15.348Z,21.11
2022-08-12T07:10:04.583Z,21.20
2022-08-12T07:12:35.971Z,21.29
2022-08-12T07:15:06.162Z,21.37
2022-08-12T07:17:37.452Z,21.46
2022-08-12T07:20:29.803Z,21.52
2022-08-12T07:23:02.451Z,21.59
2022-08-12T07:25:40.350Z,21.65
2022-08-12T07:28:16.130Z,21.71
2022-08-12T07:30:49.006Z,21.80
2022-08-12T07:33:19.149Z,21.80
2022-08-12T07:35:48.280Z,21.91
2022-08-12T07:38:29.831Z,22.00
2022-08-12T07:41:03.532Z,22.06
2022-08-12T07:43:35.503Z,22.11
2022-08-12T07:46:06.328Z,22.22
2022-08-12T07:48:40.708Z,22.33
2022-08-12T07:51:09.312Z,22.47
2022-08-12T07:53:59.874Z,22.53
2022-08-12T07:56:28.552Z,22.57
2022-08-12T07:58:59.260Z,22.67
2022-08-12T08:01:29.033Z,22.84
2022-08-12T08:04:19.151Z,23.01
2022-08-12T08:06:50.185Z,23.15
2022-08-12T08:09:22.298Z,23.26
2022-08-12T08:12:09.455Z,23.34
2022-08-12T08:14:51.991Z,23.31
2022-08-12T08:17:20.447Z,23.33
2022-08-12T08:20:02.991Z,23.36
2022-08-12T08:22:40.741Z,23.44
2022-08-12T08:25:34.362Z,23.56
2022-08-12T08:28:02.868Z,23.52
2022-08-12T08:30:34.414Z,23.62
2022-08-12T08:33:02.920Z,23.80
2022-08-12T08:35:49.730Z,24.06
2022-08-12T08:38:32.666Z,24.21
2022-08-12T08:42:18.912Z,24.18
2022-08-12T08:44:12.429Z,24.21
2022-08-12T08:46:44.430Z,24.25
2022-08-12T08:49:13.188Z,24.26
2022-08-12T08:51:43.106Z,24.27
2022-08-12T08:54:12.651Z,24.20
2022-08-12T08:56:44.277Z,24.34
2022-08-12T08:59:13.615Z,24.35
2022-08-12T09:01:44.943Z,24.37
2022-08-12T09:05:07.790Z,24.53
2022-08-12T09:07:16.998Z,24.64
2022-08-12T09:10:03.196Z,24.65
2022-08-12T09:12:51.583Z,24.75
2022-08-12T09:15:35.113Z,24.87
2022-08-12T09:18:09.033Z,24.92
2022-08-12T09:20:39.735Z,25.00
2022-08-12T09:28:53.189Z,25.42
2022-08-12T09:32:04.045Z,25.60
2022-08-12T09:34:28.937Z,26.26
2022-08-12T09:37:19.233Z,26.56
2022-08-12T09:40:03.241Z,26.84
2022-08-12T09:43:16.952Z,27.38
2022-08-12T09:46:11.051Z,27.87
2022-08-12T09:48:39.858Z,28.01
2022-08-12T09:51:16.679Z,28.04
2022-08-12T09:54:05.629Z,28.08
2022-08-12T09:57:02.113Z,27.82
2022-08-12T10:00:13.176Z,27.70
2022-08-12T10:02:44.517Z,27.91
2022-08-12T10:05:13.445Z,28.21
2022-08-12T10:07:47.251Z,28.48
2022-08-12T10:10:24.199Z,28.40
2022-08-12T10:13:35.678Z,28.51
2022-08-12T10:16:06.631Z,28.95
2022-08-12T10:18:51.570Z,29.37
2022-08-12T10:21:24.237Z,29.87
2022-08-12T10:24:08.551Z,30.19
2022-08-12T10:26:56.808Z,30.14
2022-08-12T10:30:03.333Z,30.03
2022-08-12T10:32:43.939Z,29.89
2022-08-12T10:35:16.983Z,29.67
2022-08-12T10:38:34.604Z,29.90
2022-08-12T10:40:59.627Z,29.90
2022-08-12T10:43:54.297Z,30.57
2022-08-12T10:46:30.297Z,31.03
2022-08-12T10:49:06.447Z,31.10
2022-08-12T10:52:32.423Z,31.19
2022-08-12T10:54:42.882Z,31.07
2022-08-12T10:57:17.902Z,31.13
2022-08-12T11:00:35.452Z,31.36
2022-08-12T11:04:23.738Z,31.68
2022-08-12T11:07:07.544Z,32.00
2022-08-12T11:08:43.626Z,31.61
2022-08-12T11:11:18.217Z,31.44
2022-08-12T11:14:47.982Z,31.29
2022-08-12T11:17:44.010Z,31.44
2022-08-12T11:19:47.390Z,31.76
2022-08-12T11:22:18.003Z,32.04
2022-08-12T11:24:51.328Z,32.15
2022-08-12T11:27:21.284Z,32.03
2022-08-12T11:30:02.529Z,32.29
2022-08-12T11:32:39.236Z,32.63
2022-08-12T11:35:11.474Z,32.52
2022-08-12T11:37:59.271Z,32.77
2022-08-12T11:40:29.043Z,32.56
2022-08-12T11:43:18.987Z,32.80
2022-08-12T11:45:53.207Z,33.20
2022-08-12T11:48:27.087Z,33.33
2022-08-12T11:50:57.066Z,33.04
2022-08-12T11:53:57.497Z,32.73
2022-08-12T11:56:14.749Z,32.92
2022-08-12T12:01:58.750Z,33.41
2022-08-12T12:04:28.749Z,33.99
2022-08-12T12:07:07.267Z,33.81
2022-08-12T12:09:52.658Z,33.57
2022-08-12T12:12:25.161Z,33.32
2022-08-12T12:14:54.504Z,33.32
2022-08-12T12:17:26.213Z,33.23
2022-08-12T12:20:09.948Z,33.06
2022-08-12T12:22:41.545Z,33.55
2022-08-12T12:25:14.478Z,33.95
2022-08-12T12:28:04.010Z,34.10
2022-08-12T12:30:34.724Z,33.89
2022-08-12T12:33:06.199Z,33.74
2022-08-12T12:36:17.149Z,33.28
2022-08-12T12:38:25.672Z,33.40
2022-08-12T12:40:54.817Z,33.62
2022-08-12T12:43:28.700Z,33.72
2022-08-12T12:46:12.225Z,34.03
2022-08-12T12:48:44.695Z,34.11
2022-08-12T12:51:48.927Z,34.18
2022-08-12T12:54:10.490Z,34.37
2022-08-12T12:56:42.321Z,34.40
2022-08-12T12:59:33.675Z,34.59
2022-08-12T13:02:08.249Z,33.89
2022-08-12T13:04:39.058Z,34.07
2022-08-12T13:07:08.001Z,34.08
2022-08-12T13:09:37.113Z,34.01
2022-08-12T13:12:10.801Z,33.85
2022-08-12T13:14:40.357Z,34.11
2022-08-12T13:17:14.725Z,34.35
2022-08-12T13:19:49.999Z,33.93
2022-08-12T13:22:23.839Z,34.13
2022-08-12T13:24:56.338Z,34.00
2022-08-12T13:27:34.432Z,34.20
2022-08-12T13:30:11.071Z,34.61
2022-08-12T13:32:42.545Z,34.97
2022-08-12T13:35:20.229Z,34.54
2022-08-12T13:38:03.350Z,33.67
2022-08-12T13:40:34.306Z,33.88
2022-08-12T13:43:07.234Z,34.11
2022-08-12T13:45:36.710Z,34.21
2022-08-12T13:48:07.776Z,34.25
2022-08-12T13:50:39.539Z,34.15
2022-08-12T13:53:24.158Z,33.95
2022-08-12T13:56:01.434Z,33.86
2022-08-12T13:58:34.657Z,34.44
2022-08-12T14:01:06.551Z,35.15
2022-08-12T14:03:50.916Z,35.85
2022-08-12T14:06:26.043Z,36.33
2022-08-12T14:08:59.759Z,36.38
2022-08-12T14:11:51.291Z,36.15
2022-08-12T14:14:31.466Z,35.29
2022-08-12T14:17:05.129Z,34.12
2022-08-12T14:19:39.281Z,33.39
2022-08-12T14:22:20.312Z,33.58
2022-08-12T14:24:49.776Z,33.71
2022-08-12T14:28:03.301Z,33.88
2022-08-12T14:30:15.624Z,33.62
2022-08-12T14:32:46.075Z,33.34
2022-08-12T14:35:15.646Z,33.26
2022-08-12T14:37:57.474Z,33.42
2022-08-12T14:40:29.552Z,33.82
2022-08-12T14:42:59.660Z,34.32
2022-08-12T14:45:37.203Z,34.44
2022-08-12T14:48:23.356Z,34.64
2022-08-12T14:52:10.624Z,34.77
2022-08-12T14:55:24.793Z,34.95
2022-08-12T14:59:56.331Z,34.97
2022-08-12T15:02:29.589Z,34.73
2022-08-12T15:05:01.348Z,34.08
2022-08-12T15:07:43.719Z,33.08
2022-08-12T15:10:32.433Z,33.14
2022-08-12T15:13:07.556Z,33.68
2022-08-12T15:15:43.991Z,33.94
2022-08-12T15:18:21.744Z,33.66
2022-08-12T15:20:54.812Z,33.59
2022-08-12T15:23:29.200Z,34.07
2022-08-12T15:26:05.646Z,34.48
2022-08-12T15:28:36.318Z,34.51
2022-08-12T15:31:21.724Z,34.60
2022-08-12T15:33:57.209Z,34.73
2022-08-12T15:36:53.858Z,34.23
2022-08-12T15:39:17.806Z,33.91
2022-08-12T15:41:49.189Z,34.02
2022-08-12T15:44:38.535Z,33.26
2022-08-12T15:47:08.840Z,33.04
2022-08-12T15:49:54.292Z,33.31
2022-08-12T15:52:28.918Z,33.79
2022-08-12T15:55:06.094Z,33.08
2022-08-12T15:57:53.854Z,32.58
2022-08-12T16:00:32.718Z,32.29
2022-08-12T16:03:05.366Z,32.29
2022-08-12T16:06:12.068Z,31.95
2022-08-12T16:08:27.180Z,32.30
2022-08-12T16:10:57.620Z,32.03
2022-08-12T16:13:32.640Z,31.68
2022-08-12T16:16:22.771Z,31.53
2022-08-12T16:18:58.637Z,31.13
2022-08-12T16:21:51.737Z,30.59
2022-08-12T16:24:19.607Z,29.97
2022-08-12T16:26:51.295Z,29.54
2022-08-12T16:29:38.536Z,29.32
2022-08-12T16:32:30.992Z,29.17
2022-08-12T16:35:00.809Z,29.17
2022-08-12T16:38:25.014Z,29.60
2022-08-12T16:40:23.775Z,29.70
2022-08-12T16:42:54.344Z,29.70
2022-08-12T16:46:05.568Z,29.81
2022-08-12T16:48:34.605Z,29.81
2022-08-12T16:51:09.268Z,29.78
2022-08-12T16:53:44.829Z,29.73
2022-08-12T16:56:17.000Z,29.79
2022-08-12T16:58:47.014Z,29.75
2022-08-12T17:01:19.770Z,29.72
2022-08-12T17:04:08.537Z,29.62
2022-08-12T17:06:41.562Z,29.72
2022-08-12T17:09:17.092Z,29.84
2022-08-12T17:11:49.676Z,29.72
2022-08-12T17:14:23.224Z,29.40
2022-08-12T17:16:56.944Z,29.22
2022-08-12T17:20:16.908Z,29.23
2022-08-12T17:22:21.958Z,29.20
2022-08-12T17:24:55.725Z,28.73
2022-08-12T17:27:30.835Z,28.50
2022-08-12T17:30:04.152Z,28.55
2022-08-12T17:32:37.222Z,28.47
2022-08-12T17:35:30.014Z,28.17
2022-08-12T17:38:11.900Z,28.09
2022-08-12T17:40:42.284Z,28.02
2022-08-12T17:43:57.196Z,27.92
2022-08-12T17:46:03.102Z,27.94
2022-08-12T17:48:38.473Z,28.06
2022-08-12T17:51:15.744Z,27.99
2022-08-12T17:54:10.241Z,27.77
2022-08-12T17:56:38.071Z,27.69
2022-08-12T17:59:12.675Z,27.63
2022-08-12T18:01:45.656Z,27.65
2022-08-12T18:04:21.887Z,27.55
2022-08-12T18:06:52.861Z,27.64
2022-08-12T18:09:36.170Z,27.41
2022-08-12T18:12:24.295Z,27.34
2022-08-12T18:14:58.529Z,27.16
2022-08-12T18:17:28.839Z,27.07
2022-08-12T18:20:05.085Z,27.01
2022-08-12T18:22:38.625Z,26.86
2022-08-12T18:26:12.352Z,26.79
2022-08-12T18:28:16.680Z,26.67
2022-08-12T18:30:52.212Z,26.70
2022-08-12T18:33:26.031Z,26.72
2022-08-12T18:35:57.057Z,26.70
2022-08-12T18:38:28.346Z,26.63
2022-08-12T18:41:21.117Z,26.58
2022-08-12T18:44:02.625Z,26.53
2022-08-12T18:46:48.706Z,26.48
2022-08-12T18:49:29.760Z,26.40
2022-08-12T18:52:05.232Z,26.26
2022-08-12T18:54:36.236Z,26.25
2022-08-12T18:57:16.188Z,26.17
2022-08-12T19:00:00.936Z,26.02
2022-08-12T19:02:40.679Z,25.96
2022-08-12T19:05:11.826Z,25.82
2022-08-12T19:07:57.998Z,25.80
2022-08-12T19:10:32.132Z,25.70
2022-08-12T19:13:24.161Z,25.69
2022-08-12T19:15:58.108Z,25.61
2022-08-12T19:18:31.077Z,25.58
2022-08-12T19:21:12.049Z,25.54
2022-08-12T19:24:07.498Z,25.47
2022-08-12T19:26:36.746Z,25.44
2022-08-12T19:29:07.626Z,25.38
2022-08-12T19:31:58.318Z,25.36
2022-08-12T19:37:26.836Z,25.15
2022-08-12T19:40:09.872Z,25.13
2022-08-12T19:43:00.781Z,25.06
2022-08-12T19:45:43.491Z,24.94
2022-08-12T19:48:19.964Z,24.90
2022-08-12T19:50:52.475Z,24.69
2022-08-12T19:53:23.900Z,24.47
2022-08-12T19:55:55.104Z,24.18
2022-08-12T19:58:24.727Z,23.94
2022-08-12T20:00:55.037Z,23.87
2022-08-12T20:03:38.302Z,23.86
2022-08-12T20:06:15.585Z,23.78
2022-08-12T20:08:49.182Z,23.77
2022-08-12T20:12:13.854Z,23.77
2022-08-12T20:14:19.044Z,23.81
2022-08-12T20:16:57.169Z,23.80
2022-08-12T20:19:52.545Z,23.76
2022-08-12T20:22:24.565Z,23.73
2022-08-12T20:25:01.588Z,23.53
2022-08-12T20:28:05.157Z,23.43
2022-08-12T20:30:37.433Z,23.31
2022-08-12T20:33:18.718Z,23.25
2022-08-12T20:36:14.344Z,23.26
2022-08-12T20:38:40.666Z,23.23
2022-08-12T20:41:17.726Z,23.21
2022-08-12T20:43:51.920Z,23.21
2022-08-12T20:46:22.198Z,23.20
2022-08-12T20:48:55.368Z,23.16
2022-08-12T20:51:28.217Z,23.15
2022-08-12T20:54:18.460Z,23.17
2022-08-12T20:56:48.751Z,23.11
2022-08-12T20:59:20.360Z,23.06
2022-08-12T21:01:54.178Z,23.02
2022-08-12T21:04:43.950Z,23.04
2022-08-12T21:07:13.887Z,22.99
2022-08-12T21:09:47.185Z,22.86
2022-08-12T21:12:31.190Z,22.79
2022-08-12T21:15:23.789Z,22.69
2022-08-12T21:18:11.006Z,22.60
2022-08-12T21:20:49.960Z,22.55
2022-08-12T21:23:21.286Z,22.52
2022-08-12T21:25:51.191Z,22.53
2022-08-12T21:28:21.121Z,22.49
2022-08-12T21:31:11.024Z,22.49
2022-08-12T21:34:06.485Z,22.43
2022-08-12T21:36:34.107Z,22.44
2022-08-12T21:39:19.106Z,22.47
2022-08-12T21:41:52.746Z,22.34
2022-08-12T21:45:45.455Z,22.24
2022-08-12T21:47:21.609Z,22.09
2022-08-12T21:50:03.821Z,22.05
2022-08-12T21:52:48.827Z,22.01
2022-08-12T21:55:20.341Z,21.99
2022-08-12T21:57:53.627Z,21.90
2022-08-12T22:00:32.018Z,21.86
2022-08-12T22:04:02.279Z,21.70
2022-08-12T22:06:31.686Z,21.80
2022-08-12T22:09:16.199Z,21.70
2022-08-12T22:11:56.033Z,21.64
2022-08-12T22:14:26.802Z,21.61
2022-08-12T22:16:57.057Z,21.60
2022-08-12T22:19:27.247Z,21.56
2022-08-12T22:21:58.803Z,21.59
2022-08-12T22:24:30.834Z,21.54
2022-08-12T22:27:16.040Z,21.51
2022-08-12T22:30:08.491Z,21.49
2022-08-12T22:32:41.911Z,21.41
2022-08-12T22:35:55.977Z,21.40
2022-08-12T22:38:25.024Z,21.32
2022-08-12T22:40:58.377Z,21.23
2022-08-12T22:43:59.151Z,21.15
2022-08-12T22:46:52.591Z,21.16
2022-08-12T22:49:37.415Z,21.14
2022-08-12T22:52:18.543Z,21.14
2022-08-12T22:55:00.230Z,21.13
2022-08-12T22:57:48.937Z,21.14
2022-08-12T23:00:27.820Z,21.10
2022-08-12T23:03:00.432Z,21.09
2022-08-12T23:05:56.891Z,21.08
2022-08-12T23:08:29.911Z,20.97
2022-08-12T23:11:00.933Z,20.86
2022-08-12T23:13:54.905Z,20.79
2022-08-12T23:16:31.537Z,20.79
2022-08-12T23:19:09.747Z,20.78
2022-08-12T23:22:05.321Z,20.73
2022-08-12T23:24:35.163Z,20.71
2022-08-12T23:27:22.084Z,20.60
2022-08-12T23:30:17.524Z,20.63
2022-08-12T23:32:40.307Z,20.63
2022-08-12T23:35:09.455Z,20.63
2022-08-12T23:37:53.719Z,20.55
2022-08-12T23:40:26.021Z,20.53
2022-08-12T23:42:55.138Z,20.48
2022-08-12T23:45:31.360Z,20.42
2022-08-12T23:48:03.108Z,20.39
2022-08-12T23:50:34.471Z,20.35
2022-08-12T23:53:06.674Z,20.25
2022-08-12T23:55:57.246Z,20.20
2022-08-12T23:58:28.659Z,20.06
